Погода Телябукинона неделю

Смоленская область, Россия

23 - 29 июля
  • 23июля
    Сегодня
    +10°
    +23°
    Практически безоблачно
    ВремяПогодаТемператураВлажностьДавлениеВетер, м/сВероятность осадков
    00:00Ясно и безоблачно+15°C93 %739 мм2.9 м/с4 %
    03:00Ясно и безоблачно+14°C94 %740 мм2.6 м/с2 %
    06:00Ясно и безоблачно+14°C89 %740 мм3.2 м/с2 %
    09:00Ясно и безоблачно+18°C71 %741 мм2.8 м/с2 %
    12:00Ясно и безоблачно+20°C52 %741 мм3.6 м/с2 %
    15:00Практически безоблачно+23°C42 %741 мм3.1 м/с3 %
    18:00Практически безоблачно+22°C43 %740 мм3.2 м/с2 %
    21:00Ясно и безоблачно+18°C58 %741 мм3.7 м/с2 %
  • 24июля
    Среда
    +13°
    +24°
    Облачно с прояснениями
    ВремяПогодаТемператураВлажностьДавлениеВетер, м/сВероятность осадков
    00:00Ясно и безоблачно+14°C68 %741 мм2.7 м/с2 %
    03:00Ясно и безоблачно+12°C80 %741 мм1.3 м/с2 %
    06:00Ясно и безоблачно+12°C83 %741 мм2.3 м/с2 %
    09:00Ясно и безоблачно+19°C65 %741 мм1.6 м/с2 %
    12:00Облачно с прояснениями+22°C44 %741 мм2.8 м/с2 %
    15:00Облачно с прояснениями+23°C40 %740 мм2.0 м/с2 %
    18:00Небольшая облачность+24°C41 %739 мм2.0 м/с2 %
    21:00Ясно и безоблачно+18°C60 %739 мм2.5 м/с2 %
  • 25июля
    Четверг
    +12°
    +25°
    Небольшая облачность и лёгкий дождик
    ВремяПогодаТемператураВлажностьДавлениеВетер, м/сВероятность осадков
    00:00Ясно и безоблачно+14°C76 %739 мм1.8 м/с2 %
    03:00Ясно и безоблачно+14°C72 %739 мм0.3 м/с2 %
    06:00Ясно и безоблачно+14°C78 %739 мм1.7 м/с2 %
    09:00Ясно и безоблачно+21°C57 %739 мм1.5 м/с2 %
    12:00Практически безоблачно+24°C46 %739 мм1.6 м/с11 %
    15:00Небольшая облачность и лёгкий дождик+24°C46 %738 мм1.8 м/с31 %
    18:00Небольшая облачность, ливень+22°C63 %738 мм2.8 м/с42 %
    21:00Ясно и безоблачно+20°C75 %738 мм0.8 м/с11 %
  • 26июля
    Пятница
    +12°
    +25°
    Практически безоблачно
    ВремяПогодаТемператураВлажностьДавлениеВетер, м/сВероятность осадков
    00:00Ясно и безоблачно+15°C91 %738 мм1.5 м/с2 %
    03:00Ясно и безоблачно+13°C95 %739 мм1.8 м/с2 %
    06:00Ясно и безоблачно+14°C96 %739 мм1.9 м/с2 %
    09:00Ясно и безоблачно+19°C78 %740 мм1.9 м/с2 %
    12:00Ясно и безоблачно+22°C54 %741 мм2.3 м/с25 %
    15:00Практически безоблачно+23°C46 %741 мм1.7 м/с23 %
    18:00Практически безоблачно+24°C44 %741 мм1.9 м/с28 %
    21:00Ясно и безоблачно+19°C64 %742 мм1.6 м/с11 %
  • 27июля
    Суббота
    +13°
    +25°
    Практически безоблачно
    ВремяПогодаТемператураВлажностьДавлениеВетер, м/сВероятность осадков
    00:00Ясно и безоблачно+15°C77 %742 мм1.1 м/с4 %
    03:00Практически безоблачно+14°C72 %743 мм0.9 м/с2 %
    06:00Ясно и безоблачно+14°C82 %743 мм0.4 м/с6 %
    09:00Ясно и безоблачно+21°C54 %744 мм0.8 м/с6 %
    12:00Практически безоблачно+24°C51 %745 мм1.7 м/с20 %
    15:00Практически безоблачно+24°C51 %745 мм2.0 м/с28 %
    18:00Практически безоблачно+23°C61 %745 мм2.3 м/с37 %
    21:00Ясно и безоблачно+19°C82 %745 мм1.7 м/с19 %
Мы используем cookies
Соглашаюсь